Hootenville, Louisiana
Current Conditions -  °F | °C
As of 8:53 PM on Friday 31 Oct 2014 (Local Time) from KASD Reporting Station
Clear Clear  
Wind Chill: 62°   Ceiling: Unl
Heat Index: 62°   Visibility: 10mi
Dew Point: 45°   Wind: 13mph
Humidity: 53%   Direction: 350°N
Pressure: 30.14"   Gusts: NA
Location:  30.3898°N, 90.0068°W
Report Text: KASD 010153Z AUTO 35011KT 10SM CLR 17/07 A3014 RMK AO2 SLP206 T01670072
Loading
Personal Weather Stations






























Interactive Weather Map New forecast layout! Learn more

10-Day Weather Forecast

Advertisements
Track Severe Weather on mobile